createdAt,value
2022-08-22T00:01:49.829Z,99.90
2022-08-22T00:02:53.142Z,92.10
2022-08-22T00:03:10.645Z,92.40
2022-08-22T00:04:25.618Z,99.90
2022-08-22T00:07:01.841Z,99.90
2022-08-22T00:09:46.083Z,99.90
2022-08-22T00:12:22.978Z,99.90
2022-08-22T00:14:59.893Z,99.90
2022-08-22T00:17:41.359Z,99.90
2022-08-22T00:20:15.027Z,99.90
2022-08-22T00:22:50.166Z,99.90
2022-08-22T00:25:53.649Z,99.90
2022-08-22T00:28:28.801Z,99.90
2022-08-22T00:31:03.371Z,99.90
2022-08-22T00:33:42.078Z,99.90
2022-08-22T00:36:19.331Z,99.90
2022-08-22T00:38:54.390Z,99.90
2022-08-22T00:42:29.340Z,99.90
2022-08-22T00:45:25.683Z,99.90
2022-08-22T00:48:04.309Z,99.90
2022-08-22T00:50:58.995Z,99.90
2022-08-22T00:53:44.275Z,99.90
2022-08-22T00:56:27.604Z,99.90
2022-08-22T00:59:23.241Z,99.90
2022-08-22T01:01:58.508Z,99.90
2022-08-22T01:04:51.025Z,99.90
2022-08-22T01:07:57.559Z,99.90
2022-08-22T01:10:44.015Z,99.90
2022-08-22T01:13:33.245Z,99.90
2022-08-22T01:16:31.477Z,99.90
2022-08-22T01:19:38.575Z,99.90
2022-08-22T01:22:42.421Z,99.90
2022-08-22T01:25:42.983Z,99.90
2022-08-22T01:28:34.806Z,99.90
2022-08-22T01:31:49.151Z,99.90
2022-08-22T01:34:46.792Z,99.90
2022-08-22T01:37:43.960Z,99.90
2022-08-22T01:40:54.022Z,99.90
2022-08-22T01:43:59.947Z,99.90
2022-08-22T01:46:37.961Z,99.90
2022-08-22T01:49:14.795Z,99.90
2022-08-22T01:51:51.006Z,99.90
2022-08-22T01:54:29.611Z,99.90
2022-08-22T01:57:02.462Z,99.90
2022-08-22T01:59:42.461Z,99.90
2022-08-22T02:02:38.078Z,99.90
2022-08-22T02:05:13.798Z,99.90
2022-08-22T02:07:50.059Z,99.90
2022-08-22T02:10:23.834Z,99.90
2022-08-22T02:13:08.553Z,99.90
2022-08-22T02:15:50.947Z,99.90
2022-08-22T02:18:28.097Z,99.90
2022-08-22T02:21:03.137Z,99.90
2022-08-22T02:23:46.165Z,99.90
2022-08-22T02:26:18.612Z,99.90
2022-08-22T02:28:57.205Z,99.90
2022-08-22T02:31:40.119Z,99.90
2022-08-22T02:34:34.774Z,99.90
2022-08-22T02:37:09.558Z,99.90
2022-08-22T02:39:45.469Z,99.90
2022-08-22T02:42:23.557Z,99.90
2022-08-22T02:44:59.533Z,99.90
2022-08-22T02:47:34.261Z,99.90
2022-08-22T02:50:12.666Z,99.90
2022-08-22T02:52:54.008Z,99.90
2022-08-22T02:55:47.604Z,99.90
2022-08-22T02:58:24.419Z,99.90
2022-08-22T03:01:16.304Z,99.90
2022-08-22T03:03:47.323Z,99.90
2022-08-22T03:06:41.541Z,99.90
2022-08-22T03:09:24.747Z,99.90
2022-08-22T03:12:04.964Z,99.90
2022-08-22T03:14:40.060Z,99.90
2022-08-22T03:17:16.309Z,99.90
2022-08-22T03:19:56.250Z,99.90
2022-08-22T03:22:32.399Z,99.90
2022-08-22T03:25:13.077Z,99.90
2022-08-22T03:27:49.924Z,99.90
2022-08-22T03:30:21.198Z,99.90
2022-08-22T03:32:53.870Z,99.90
2022-08-22T03:35:31.033Z,99.90
2022-08-22T03:38:14.667Z,99.90
2022-08-22T03:41:06.849Z,99.90
2022-08-22T03:43:59.215Z,99.90
2022-08-22T03:46:55.846Z,99.90
2022-08-22T03:50:01.209Z,99.90
2022-08-22T03:53:13.798Z,99.90
2022-08-22T03:56:24.042Z,99.90
2022-08-22T03:59:23.626Z,99.90
2022-08-22T04:02:43.026Z,99.90
2022-08-22T04:05:40.938Z,99.90
2022-08-22T04:08:50.542Z,99.90
2022-08-22T04:11:46.219Z,99.90
2022-08-22T04:14:41.242Z,99.90
2022-08-22T04:17:32.175Z,99.90
2022-08-22T04:20:41.189Z,99.90
2022-08-22T04:24:04.311Z,99.90
2022-08-22T04:26:42.066Z,99.90
2022-08-22T04:29:19.814Z,99.90
2022-08-22T04:31:55.459Z,99.90
2022-08-22T04:34:30.657Z,99.90
2022-08-22T04:37:06.709Z,99.90
2022-08-22T04:39:41.094Z,99.90
2022-08-22T04:42:32.403Z,99.90
2022-08-22T04:45:06.824Z,99.90
2022-08-22T04:47:40.343Z,99.90
2022-08-22T04:50:16.221Z,99.90
2022-08-22T04:53:04.766Z,99.90
2022-08-22T04:55:41.083Z,99.90
2022-08-22T04:58:23.158Z,99.90
2022-08-22T05:00:58.422Z,99.90
2022-08-22T05:03:30.907Z,99.90
2022-08-22T05:06:01.714Z,99.90
2022-08-22T05:08:34.018Z,99.90
2022-08-22T05:11:04.827Z,99.90
2022-08-22T05:13:39.159Z,99.90
2022-08-22T05:16:13.294Z,99.90
2022-08-22T05:18:47.810Z,99.90
2022-08-22T05:21:19.898Z,99.90
2022-08-22T05:23:53.111Z,99.90
2022-08-22T05:26:23.141Z,99.90
2022-08-22T05:28:57.132Z,99.90
2022-08-22T05:31:30.429Z,99.90
2022-08-22T05:34:04.605Z,99.90
2022-08-22T05:36:35.667Z,99.90
2022-08-22T05:39:08.431Z,99.90
2022-08-22T05:41:39.139Z,99.90
2022-08-22T05:44:18.123Z,99.90
2022-08-22T05:46:49.955Z,99.90
2022-08-22T05:49:23.103Z,99.90
2022-08-22T05:52:07.986Z,99.90
2022-08-22T05:54:45.316Z,99.90
2022-08-22T05:57:23.661Z,99.90
2022-08-22T05:59:59.359Z,99.90
2022-08-22T06:02:40.181Z,99.90
2022-08-22T06:05:12.169Z,99.90
2022-08-22T06:07:46.701Z,99.90
2022-08-22T06:10:23.263Z,99.90
2022-08-22T06:12:57.543Z,99.90
2022-08-22T06:15:35.402Z,99.90
2022-08-22T06:18:07.058Z,99.90
2022-08-22T06:20:41.057Z,99.90
2022-08-22T06:23:10.115Z,99.90
2022-08-22T06:25:41.870Z,99.90
2022-08-22T06:28:12.662Z,99.90
2022-08-22T06:30:41.758Z,99.90
2022-08-22T06:33:13.361Z,99.90
2022-08-22T06:36:05.457Z,99.90
2022-08-22T06:38:40.674Z,99.90
2022-08-22T06:41:11.116Z,99.90
2022-08-22T06:43:43.542Z,99.90
2022-08-22T06:46:16.553Z,99.90
2022-08-22T06:48:46.086Z,99.90
2022-08-22T06:51:19.123Z,99.90
2022-08-22T06:53:49.678Z,99.90
2022-08-22T06:56:22.912Z,99.90
2022-08-22T06:58:53.981Z,99.90
2022-08-22T07:01:26.224Z,99.90
2022-08-22T07:03:59.343Z,99.90
2022-08-22T07:06:35.706Z,99.90
2022-08-22T07:09:06.204Z,99.90
2022-08-22T07:11:39.722Z,99.90
2022-08-22T07:14:11.576Z,99.90
2022-08-22T07:16:43.393Z,99.90
2022-08-22T07:19:24.474Z,99.90
2022-08-22T07:21:54.568Z,99.90
2022-08-22T07:24:25.776Z,99.90
2022-08-22T07:27:05.977Z,99.90
2022-08-22T07:29:43.836Z,99.90
2022-08-22T07:32:17.934Z,99.90
2022-08-22T07:35:02.009Z,99.90
2022-08-22T07:37:52.056Z,99.90
2022-08-22T07:40:27.133Z,99.90
2022-08-22T07:43:00.425Z,99.90
2022-08-22T07:45:36.279Z,99.90
2022-08-22T07:48:25.103Z,99.90
2022-08-22T07:51:08.478Z,99.90
2022-08-22T07:53:42.815Z,99.90
2022-08-22T07:56:15.546Z,99.90
2022-08-22T07:58:45.784Z,99.90
2022-08-22T08:01:18.885Z,99.90
2022-08-22T08:03:55.202Z,99.90
2022-08-22T08:06:25.633Z,99.90
2022-08-22T08:08:56.870Z,99.90
2022-08-22T08:11:28.978Z,99.90
2022-08-22T08:14:01.785Z,99.90
2022-08-22T08:16:34.895Z,99.90
2022-08-22T08:19:04.586Z,99.90
2022-08-22T08:21:40.164Z,99.90
2022-08-22T08:24:16.993Z,99.90
2022-08-22T08:27:06.109Z,99.90
2022-08-22T08:29:36.294Z,99.90
2022-08-22T08:32:07.809Z,99.90
2022-08-22T08:34:38.444Z,99.90
2022-08-22T08:37:13.902Z,99.90
2022-08-22T08:39:50.744Z,99.00
2022-08-22T08:43:03.488Z,99.60
2022-08-22T08:45:49.458Z,98.50
2022-08-22T08:48:45.074Z,95.20
2022-08-22T08:51:26.957Z,99.10
2022-08-22T08:54:27.697Z,95.60
2022-08-22T08:57:04.693Z,95.30
2022-08-22T08:59:49.391Z,96.90
2022-08-22T09:02:34.928Z,94.30
2022-08-22T09:05:27.122Z,92.70
2022-08-22T09:08:25.277Z,91.40
2022-08-22T09:11:12.090Z,92.20
2022-08-22T09:13:56.105Z,90.70
2022-08-22T09:16:45.088Z,93.40
2022-08-22T09:19:48.370Z,92.90
2022-08-22T09:22:58.918Z,83.30
2022-08-22T09:25:38.615Z,80.40
2022-08-22T09:28:15.927Z,91.40
2022-08-22T09:30:58.805Z,84.30
2022-08-22T09:33:39.237Z,80.60
2022-08-22T09:36:15.049Z,79.10
2022-08-22T09:38:52.805Z,89.20
2022-08-22T09:41:37.411Z,86.80
2022-08-22T09:44:16.710Z,88.60
2022-08-22T09:46:57.643Z,77.60
2022-08-22T09:49:38.067Z,82.90
2022-08-22T09:52:15.112Z,83.60
2022-08-22T09:54:47.871Z,79.50
2022-08-22T09:57:30.846Z,83.30
2022-08-22T10:00:17.139Z,82.20
2022-08-22T10:03:03.922Z,86.90
2022-08-22T10:05:44.270Z,85.00
2022-08-22T10:11:18.994Z,80.30
2022-08-22T10:14:01.323Z,84.50
2022-08-22T10:17:02.231Z,85.00
2022-08-22T10:19:38.192Z,77.10
2022-08-22T10:22:21.993Z,80.10
2022-08-22T10:25:02.071Z,90.00
2022-08-22T10:27:46.479Z,80.40
2022-08-22T10:30:19.366Z,85.40
2022-08-22T10:32:52.751Z,82.20
2022-08-22T10:35:33.741Z,76.80
2022-08-22T10:38:12.411Z,72.60
2022-08-22T10:40:48.670Z,74.40
2022-08-22T10:43:29.175Z,79.20
2022-08-22T10:46:06.780Z,81.30
2022-08-22T10:48:59.526Z,83.80
2022-08-22T10:51:45.699Z,80.30
2022-08-22T10:54:32.867Z,80.00
2022-08-22T10:57:13.090Z,72.10
2022-08-22T10:59:46.875Z,81.50
2022-08-22T11:02:39.025Z,73.10
2022-08-22T11:05:27.726Z,76.30
2022-08-22T11:08:29.901Z,73.80
2022-08-22T11:11:15.142Z,73.60
2022-08-22T11:14:01.377Z,75.40
2022-08-22T11:16:42.204Z,75.90
2022-08-22T11:19:29.748Z,75.40
2022-08-22T11:22:06.515Z,76.80
2022-08-22T11:25:08.135Z,75.30
2022-08-22T11:27:48.842Z,75.80
2022-08-22T11:30:21.887Z,79.30
2022-08-22T11:33:46.773Z,77.10
2022-08-22T11:36:30.903Z,76.50
2022-08-22T11:39:13.762Z,75.50
2022-08-22T11:42:00.570Z,69.80
2022-08-22T11:44:34.360Z,74.50
2022-08-22T11:47:09.902Z,69.20
2022-08-22T11:49:53.274Z,71.90
2022-08-22T11:52:28.057Z,74.70
2022-08-22T11:55:07.487Z,73.50
2022-08-22T11:57:39.398Z,74.70
2022-08-22T12:00:32.890Z,75.40
2022-08-22T12:03:29.560Z,73.80
2022-08-22T12:06:06.381Z,74.80
2022-08-22T12:09:11.498Z,76.20
2022-08-22T12:11:46.261Z,71.50
2022-08-22T12:14:27.079Z,72.00
2022-08-22T12:17:11.068Z,72.00
2022-08-22T12:20:16.055Z,71.50
2022-08-22T12:23:11.512Z,73.40
2022-08-22T12:25:56.567Z,76.40
2022-08-22T12:28:36.405Z,71.20
2022-08-22T12:31:13.246Z,75.20
2022-08-22T12:33:56.336Z,69.20
2022-08-22T12:36:51.282Z,69.50
2022-08-22T12:40:01.593Z,70.70
2022-08-22T12:42:55.120Z,73.00
2022-08-22T12:45:43.058Z,73.20
2022-08-22T12:48:29.197Z,69.90
2022-08-22T12:51:17.754Z,69.30
2022-08-22T12:54:26.739Z,71.40
2022-08-22T12:57:04.277Z,65.10
2022-08-22T12:59:47.117Z,66.50
2022-08-22T13:02:20.125Z,68.70
2022-08-22T13:04:54.022Z,69.30
2022-08-22T13:07:29.112Z,66.80
2022-08-22T13:10:03.173Z,65.70
2022-08-22T13:12:36.431Z,70.20
2022-08-22T13:15:23.142Z,66.60
2022-08-22T13:17:53.221Z,66.10
2022-08-22T13:20:26.817Z,71.70
2022-08-22T13:22:57.355Z,65.40
2022-08-22T13:25:28.295Z,67.00
2022-08-22T13:27:59.453Z,70.10
2022-08-22T13:30:32.942Z,68.70
2022-08-22T13:33:09.589Z,72.80
2022-08-22T13:35:51.721Z,67.70
2022-08-22T13:38:26.635Z,66.60
2022-08-22T13:40:56.703Z,66.50
2022-08-22T13:43:29.784Z,70.40
2022-08-22T13:46:01.909Z,67.40
2022-08-22T13:48:47.302Z,68.90
2022-08-22T13:51:23.860Z,67.20
2022-08-22T13:54:10.811Z,69.10
2022-08-22T13:56:48.006Z,70.60
2022-08-22T13:59:50.321Z,70.20
2022-08-22T14:02:53.184Z,69.60
2022-08-22T14:05:26.333Z,69.00
2022-08-22T14:08:12.490Z,70.40
2022-08-22T14:10:50.509Z,70.30
2022-08-22T14:13:37.464Z,72.20
2022-08-22T14:16:10.415Z,71.60
2022-08-22T14:18:46.046Z,71.00
2022-08-22T14:21:40.487Z,72.40
2022-08-22T14:24:20.029Z,73.30
2022-08-22T14:26:59.374Z,73.00
2022-08-22T14:29:51.207Z,73.50
2022-08-22T14:32:42.048Z,74.40
2022-08-22T14:35:23.265Z,76.70
2022-08-22T14:38:20.598Z,76.40
2022-08-22T14:41:00.114Z,77.00
2022-08-22T14:43:56.928Z,76.10
2022-08-22T14:46:30.243Z,76.00
2022-08-22T14:49:26.949Z,76.80
2022-08-22T14:52:03.181Z,77.60
2022-08-22T14:54:35.409Z,78.70
2022-08-22T14:57:10.365Z,77.80
2022-08-22T14:59:50.534Z,76.40
2022-08-22T15:02:26.470Z,77.50
2022-08-22T15:04:56.556Z,77.70
2022-08-22T15:07:27.067Z,78.90
2022-08-22T15:10:01.097Z,79.10
2022-08-22T15:12:34.977Z,78.60
2022-08-22T15:15:09.329Z,79.10
2022-08-22T15:17:44.426Z,77.40
2022-08-22T15:20:27.856Z,79.00
2022-08-22T15:22:58.070Z,78.90
2022-08-22T15:25:33.413Z,79.90
2022-08-22T15:28:05.882Z,78.90
2022-08-22T15:30:44.355Z,78.90
2022-08-22T15:33:22.896Z,79.20
2022-08-22T15:35:53.434Z,77.70
2022-08-22T15:38:32.091Z,78.30
2022-08-22T15:41:31.459Z,78.10
2022-08-22T15:44:09.081Z,78.80
2022-08-22T15:46:56.958Z,79.80
2022-08-22T15:49:29.301Z,80.00
2022-08-22T15:52:11.305Z,78.80
2022-08-22T15:55:15.973Z,79.20
2022-08-22T15:57:51.694Z,79.10
2022-08-22T16:00:32.990Z,79.70
2022-08-22T16:03:09.182Z,79.20
2022-08-22T16:05:55.233Z,80.00
2022-08-22T16:08:28.567Z,78.20
2022-08-22T16:11:22.900Z,79.70
2022-08-22T16:14:23.091Z,78.30
2022-08-22T16:16:59.973Z,79.20
2022-08-22T16:19:32.466Z,79.60
2022-08-22T16:22:07.640Z,78.30
2022-08-22T16:25:14.405Z,77.60
2022-08-22T16:28:01.527Z,77.80
2022-08-22T16:30:37.367Z,77.60
2022-08-22T16:33:07.112Z,77.40
2022-08-22T16:36:23.530Z,77.80
2022-08-22T16:38:56.418Z,77.60
2022-08-22T16:41:34.731Z,76.80
2022-08-22T16:44:26.967Z,76.30
2022-08-22T16:46:56.457Z,76.70
2022-08-22T16:49:28.677Z,77.20
2022-08-22T16:52:35.644Z,76.90
2022-08-22T16:55:06.037Z,76.10
2022-08-22T16:57:59.361Z,76.50
2022-08-22T17:00:49.716Z,77.40
2022-08-22T17:03:27.945Z,78.60
2022-08-22T17:06:05.064Z,79.20
2022-08-22T17:08:50.598Z,79.80
2022-08-22T17:11:31.818Z,80.00
2022-08-22T17:14:17.656Z,80.30
2022-08-22T17:17:02.091Z,80.20
2022-08-22T17:19:44.081Z,81.20
2022-08-22T17:22:19.173Z,81.00
2022-08-22T17:24:56.087Z,81.50
2022-08-22T17:27:31.415Z,83.10
2022-08-22T17:30:09.237Z,83.40
2022-08-22T17:32:59.813Z,84.80
2022-08-22T17:35:41.657Z,84.80
2022-08-22T17:38:18.149Z,85.70
2022-08-22T17:40:56.510Z,86.80
2022-08-22T17:43:49.035Z,86.90
2022-08-22T17:46:41.011Z,88.00
2022-08-22T17:49:26.705Z,88.50
2022-08-22T17:52:01.326Z,88.80
2022-08-22T17:54:40.406Z,89.30
2022-08-22T17:57:13.336Z,89.50
2022-08-22T17:59:50.671Z,89.50
2022-08-22T18:02:23.771Z,89.60
2022-08-22T18:05:03.027Z,90.20
2022-08-22T18:07:39.430Z,90.00
2022-08-22T18:10:14.847Z,90.20
2022-08-22T18:12:51.738Z,90.70
2022-08-22T18:15:26.346Z,90.50
2022-08-22T18:18:00.546Z,90.70
2022-08-22T18:20:35.555Z,90.90
2022-08-22T18:23:21.279Z,91.20
2022-08-22T18:26:05.173Z,91.50
2022-08-22T18:28:41.915Z,92.00
2022-08-22T18:31:38.150Z,91.80
2022-08-22T18:34:17.213Z,92.10
2022-08-22T18:36:55.444Z,92.20
2022-08-22T18:39:26.531Z,92.80
2022-08-22T18:42:04.829Z,92.60
2022-08-22T18:44:38.463Z,93.10
2022-08-22T18:47:16.119Z,93.70
2022-08-22T18:49:54.233Z,93.60
2022-08-22T18:52:38.546Z,94.10
2022-08-22T18:55:31.671Z,94.10
2022-08-22T18:58:44.358Z,94.60
2022-08-22T19:01:36.005Z,97.40
2022-08-22T19:04:34.164Z,95.50
2022-08-22T19:07:25.010Z,96.10
2022-08-22T19:10:27.765Z,96.20
2022-08-22T19:13:10.648Z,97.30
2022-08-22T19:15:54.892Z,97.00
2022-08-22T19:18:39.195Z,97.40
2022-08-22T19:21:37.747Z,97.20
2022-08-22T19:24:08.489Z,97.90
2022-08-22T19:26:41.624Z,99.20
2022-08-22T19:29:42.894Z,99.90
2022-08-22T19:32:13.752Z,97.50
2022-08-22T19:34:46.831Z,99.90
2022-08-22T19:37:32.231Z,99.20
2022-08-22T19:40:05.081Z,97.60
2022-08-22T19:42:41.676Z,99.80
2022-08-22T19:45:21.624Z,98.10
2022-08-22T19:48:01.414Z,98.50
2022-08-22T19:50:36.489Z,99.90
2022-08-22T19:53:37.678Z,99.90
2022-08-22T19:56:12.788Z,99.60
2022-08-22T19:58:56.617Z,99.80
2022-08-22T20:01:40.250Z,99.90
2022-08-22T20:04:20.660Z,99.90
2022-08-22T20:06:57.801Z,99.90
2022-08-22T20:09:40.061Z,99.90
2022-08-22T20:12:15.949Z,99.90
2022-08-22T20:14:48.163Z,99.90
2022-08-22T20:17:41.189Z,99.90
2022-08-22T20:20:19.086Z,99.90
2022-08-22T20:22:52.751Z,99.90
2022-08-22T20:25:42.066Z,99.90
2022-08-22T20:28:38.841Z,99.90
2022-08-22T20:31:12.693Z,99.90
2022-08-22T20:33:46.051Z,99.90
2022-08-22T20:36:28.819Z,99.90
2022-08-22T20:39:01.177Z,99.90
2022-08-22T20:41:33.713Z,99.90
2022-08-22T20:44:06.303Z,99.90
2022-08-22T20:46:47.715Z,99.90
2022-08-22T20:49:24.622Z,99.90
2022-08-22T20:51:55.106Z,99.90
2022-08-22T20:54:26.182Z,99.90
2022-08-22T20:56:56.629Z,99.90
2022-08-22T20:59:32.147Z,99.90
2022-08-22T21:02:12.101Z,99.90
2022-08-22T21:04:49.976Z,99.90
2022-08-22T21:07:26.012Z,99.90
2022-08-22T21:10:22.303Z,99.90
2022-08-22T21:13:08.379Z,99.90
2022-08-22T21:15:39.196Z,99.90
2022-08-22T21:18:09.956Z,99.90
2022-08-22T21:20:40.034Z,99.90
2022-08-22T21:23:11.294Z,99.90
2022-08-22T21:25:52.269Z,99.90
2022-08-22T21:28:29.243Z,99.90
2022-08-22T21:30:58.245Z,99.90
2022-08-22T21:33:28.255Z,99.90
2022-08-22T21:35:58.458Z,99.90
2022-08-22T21:38:28.196Z,99.90
2022-08-22T21:41:02.874Z,99.90
2022-08-22T21:43:34.115Z,99.90
2022-08-22T21:46:02.133Z,99.90
2022-08-22T21:48:38.086Z,99.90
2022-08-22T21:51:31.834Z,99.90
2022-08-22T21:54:39.935Z,99.90
2022-08-22T21:57:35.896Z,99.90
2022-08-22T22:00:09.011Z,99.90
2022-08-22T22:02:41.874Z,99.90
2022-08-22T22:05:15.938Z,99.90
2022-08-22T22:07:47.423Z,99.90
2022-08-22T22:10:18.394Z,99.90
2022-08-22T22:12:49.201Z,99.90
2022-08-22T22:15:19.417Z,99.90
2022-08-22T22:17:47.562Z,99.90
2022-08-22T22:20:19.827Z,99.90
2022-08-22T22:22:48.359Z,99.90
2022-08-22T22:25:38.727Z,99.90
2022-08-22T22:28:09.210Z,99.90
2022-08-22T22:30:37.478Z,99.90
2022-08-22T22:33:06.374Z,99.90
2022-08-22T22:35:38.233Z,99.90
2022-08-22T22:38:06.621Z,99.90
2022-08-22T22:40:35.197Z,99.90
2022-08-22T22:43:03.416Z,99.90
2022-08-22T22:45:31.513Z,99.90
2022-08-22T22:47:59.745Z,99.90
2022-08-22T22:50:28.345Z,99.90
2022-08-22T22:52:57.754Z,99.90
2022-08-22T22:55:26.033Z,99.90
2022-08-22T22:57:59.142Z,99.90
2022-08-22T23:00:29.199Z,99.90
2022-08-22T23:03:00.182Z,99.90
2022-08-22T23:05:28.337Z,99.90
2022-08-22T23:07:58.304Z,99.90
2022-08-22T23:10:27.414Z,99.90
2022-08-22T23:12:55.649Z,99.90
2022-08-22T23:15:23.750Z,99.90
2022-08-22T23:17:52.370Z,99.90
2022-08-22T23:20:20.907Z,99.90
2022-08-22T23:22:49.163Z,99.90
2022-08-22T23:25:18.726Z,99.90
2022-08-22T23:27:58.568Z,99.90
2022-08-22T23:30:26.637Z,99.90
2022-08-22T23:32:56.052Z,99.90
2022-08-22T23:35:24.097Z,99.90
2022-08-22T23:37:52.745Z,99.90
2022-08-22T23:40:22.905Z,99.90
2022-08-22T23:42:50.965Z,99.90
2022-08-22T23:45:19.111Z,99.90
2022-08-22T23:47:47.561Z,99.90
2022-08-22T23:50:16.258Z,99.90
2022-08-22T23:52:44.404Z,99.90
2022-08-22T23:55:12.556Z,99.90
2022-08-22T23:57:42.019Z,99.90
